Time;durP1;ratioP1;P1;durP2;ratioP2;P2;SDS_P1;SDS_P2;PMS_P1;PMS_P2;Temp;Humidity;BMP_temperature;BMP_pressure;BME280_temperature;BME280_humidity;BME280_pressure;Samples;Min_cycle;Max_cycle;Signal;HPM_P1;HPM_P2
2022/04/15 00:00:47;;;;;;;14.35;7.07;;;230.50;2252.80;;;;;;5031291;28;20574;-57
2022/04/15 00:03:13;;;;;;;16.80;8.10;;;230.50;2252.80;;;;;;5030723;28;20030;-57
2022/04/15 00:05:41;;;;;;;11.10;6.47;;;205.70;2252.80;;;;;;5031045;28;20434;-57
2022/04/15 00:08:12;;;;;;;14.90;7.20;;;230.40;2252.80;;;;;;5031154;28;20387;-56
2022/04/15 00:10:41;;;;;;;10.38;5.80;;;230.40;2252.80;;;;;;5031059;28;20112;-57
2022/04/15 00:13:11;;;;;;;11.63;6.43;;;205.60;2252.80;;;;;;5030773;28;20034;-56
2022/04/15 00:15:38;;;;;;;10.27;6.93;;;205.60;2252.80;;;;;;5030770;28;20032;-56
2022/04/15 00:18:04;;;;;;;15.10;7.70;;;205.70;2252.80;;;;;;5030349;28;20455;-56
2022/04/15 00:20:29;;;;;;;13.45;7.40;;;205.50;2252.80;;;;;;5030811;28;20025;-56
2022/04/15 00:22:58;;;;;;;15.60;6.95;;;205.50;2252.80;;;;;;5030645;28;20103;-56
2022/04/15 00:25:24;;;;;;;13.95;6.78;;;205.40;2252.80;;;;;;5030443;28;20375;-57
2022/04/15 00:27:50;;;;;;;9.93;5.68;;;205.40;2252.80;;;;;;5030707;28;20472;-57
2022/04/15 00:30:16;;;;;;;9.02;6.22;;;205.30;2252.80;;;;;;5030329;28;20359;-55
2022/04/15 00:32:42;;;;;;;15.98;6.55;;;205.40;2252.80;;;;;;5030368;28;20173;-57
2022/04/15 00:35:09;;;;;;;7.97;4.68;;;205.30;2252.80;;;;;;5030098;28;20140;-56
2022/04/15 00:37:34;;;;;;;10.68;5.10;;;205.30;2252.80;;;;;;5030478;28;20075;-57
2022/04/15 00:40:03;;;;;;;14.95;7.22;;;205.40;2252.80;;;;;;5030437;28;20049;-56
2022/04/15 00:42:31;;;;;;;19.20;9.60;;;205.50;2252.80;;;;;;5030461;28;20491;-56
2022/04/15 00:44:58;;;;;;;9.93;6.25;;;205.50;2252.80;;;;;;5030248;28;20021;-56
2022/04/15 00:47:48;;;;;;;9.90;5.95;;;205.50;2252.80;;;;;;5029972;28;20029;-57
2022/04/15 00:50:15;;;;;;;9.23;5.95;;;205.50;2252.80;;;;;;5029977;28;20037;-57
2022/04/15 00:52:46;;;;;;;11.07;5.78;;;205.30;2252.80;;;;;;5030132;28;20038;-57
2022/04/15 00:55:13;;;;;;;13.40;6.93;;;205.30;2252.80;;;;;;5030300;28;20021;-56
2022/04/15 00:57:45;;;;;;;10.13;6.05;;;205.20;2252.80;;;;;;5030268;28;20024;-57
2022/04/15 01:00:13;;;;;;;13.35;6.35;;;205.30;2252.80;;;;;;5030221;28;20490;-57
2022/04/15 01:02:39;;;;;;;15.50;6.78;;;205.10;2252.80;;;;;;5029807;28;20122;-57
2022/04/15 01:05:08;;;;;;;16.20;6.45;;;205.10;2252.80;;;;;;5029709;28;20233;-57
2022/04/15 01:07:42;;;;;;;9.85;4.85;;;205.10;2252.80;;;;;;5029938;28;20605;-56
2022/04/15 01:10:10;;;;;;;6.72;5.30;;;205.20;2252.80;;;;;;5029882;28;20049;-56
2022/04/15 01:12:38;;;;;;;6.63;4.50;;;205.30;2252.80;;;;;;5029498;28;20102;-56
2022/04/15 01:15:07;;;;;;;7.82;4.78;;;205.30;2252.80;;;;;;5029672;28;20411;-55
2022/04/15 01:17:35;;;;;;;6.80;4.25;;;205.30;2252.80;;;;;;5029667;28;20036;-57
2022/04/15 01:20:09;;;;;;;6.35;3.92;;;205.30;2252.80;;;;;;5029672;28;20433;-56
2022/04/15 01:22:45;;;;;;;7.90;4.38;;;205.30;2252.80;;;;;;5029520;28;20048;-57
2022/04/15 01:25:14;;;;;;;8.80;4.20;;;205.30;2252.80;;;;;;5029849;28;20018;-57
2022/04/15 01:27:45;;;;;;;8.63;4.50;;;205.40;2252.80;;;;;;5029908;28;20025;-56
2022/04/15 01:30:20;;;;;;;8.70;4.68;;;205.40;2252.80;;;;;;5030011;28;20105;-57
2022/04/15 01:32:47;;;;;;;14.23;4.70;;;205.40;2252.80;;;;;;5029228;28;20041;-56
2022/04/15 01:35:15;;;;;;;9.60;5.45;;;205.30;2252.80;;;;;;5029124;28;20191;-56
2022/04/15 01:37:42;;;;;;;8.32;5.15;;;205.30;2252.80;;;;;;5029501;28;20033;-56
2022/04/15 01:40:09;;;;;;;9.18;4.70;;;205.30;2252.80;;;;;;5029272;28;20395;-57
2022/04/15 01:42:37;;;;;;;6.57;4.13;;;205.30;2252.80;;;;;;5029512;28;20045;-56
2022/04/15 01:45:03;;;;;;;10.43;5.10;;;205.40;2252.80;;;;;;5029412;28;20029;-56
2022/04/15 01:47:29;;;;;;;9.65;5.60;;;205.10;2252.80;;;;;;5029227;28;20026;-56
2022/04/15 01:49:55;;;;;;;11.15;5.35;;;180.10;2252.80;;;;;;5029100;28;20486;-56
2022/04/15 01:52:21;;;;;;;10.90;5.60;;;180.10;2252.80;;;;;;5029068;28;20038;-56
2022/04/15 01:54:47;;;;;;;9.57;4.88;;;180.10;2252.80;;;;;;5029034;28;20085;-56
2022/04/15 01:57:14;;;;;;;7.43;4.63;;;204.90;2252.80;;;;;;5029327;28;20551;-56
2022/04/15 01:59:40;;;;;;;7.40;4.55;;;204.90;2252.80;;;;;;5029204;28;20021;-57
2022/04/15 02:02:06;;;;;;;10.73;5.55;;;204.80;2252.80;;;;;;5030526;28;20040;-56
2022/04/15 02:04:33;;;;;;;8.48;4.90;;;204.80;2252.80;;;;;;5033024;28;20029;-56
2022/04/15 02:06:59;;;;;;;11.52;6.40;;;204.90;2252.80;;;;;;5033236;28;20144;-58
2022/04/15 02:09:25;;;;;;;12.02;7.38;;;205.00;2252.80;;;;;;5033067;28;20160;-56
2022/04/15 02:11:51;;;;;;;11.00;6.90;;;205.00;2252.80;;;;;;5033064;28;20132;-57
2022/04/15 02:14:18;;;;;;;8.85;5.90;;;204.90;2252.80;;;;;;5032973;28;20022;-57
2022/04/15 02:16:45;;;;;;;9.77;6.65;;;204.90;2252.80;;;;;;5033075;28;20033;-56
2022/04/15 02:19:11;;;;;;;8.50;6.35;;;204.80;2252.80;;;;;;5033036;28;20061;-56
2022/04/15 02:21:37;;;;;;;7.10;4.63;;;180.10;2252.80;;;;;;5032806;28;20068;-57
2022/04/15 02:24:03;;;;;;;10.15;5.20;;;180.00;2252.80;;;;;;5032766;28;20025;-57
2022/04/15 02:26:28;;;;;;;8.38;4.35;;;179.90;2252.80;;;;;;5033168;28;20033;-57
2022/04/15 02:28:54;;;;;;;6.30;4.35;;;204.80;2252.80;;;;;;5032635;28;20026;-57
2022/04/15 02:31:20;;;;;;;9.98;4.80;;;204.90;2252.80;;;;;;5032771;28;20033;-57
2022/04/15 02:33:45;;;;;;;8.20;7.05;;;205.00;2252.80;;;;;;5032420;28;20407;-57
2022/04/15 02:36:11;;;;;;;11.68;6.40;;;205.00;2252.80;;;;;;5032739;28;20113;-57
2022/04/15 02:38:37;;;;;;;10.85;5.15;;;204.80;2252.80;;;;;;5032750;28;20480;-57
2022/04/15 02:41:06;;;;;;;8.82;4.53;;;180.00;2252.80;;;;;;5032407;28;20021;-56
2022/04/15 02:43:33;;;;;;;5.75;4.15;;;179.90;2252.80;;;;;;5032322;28;20104;-57
2022/04/15 02:45:59;;;;;;;9.40;4.00;;;180.00;2252.80;;;;;;5032645;28;20029;-56
2022/04/15 02:48:26;;;;;;;4.90;3.28;;;180.10;2252.80;;;;;;5032260;28;20037;-56
2022/04/15 02:50:52;;;;;;;6.75;3.90;;;204.90;2252.80;;;;;;5032314;28;20399;-58
2022/04/15 02:53:18;;;;;;;10.45;4.53;;;204.90;2252.80;;;;;;5032361;28;20117;-57
2022/04/15 02:55:44;;;;;;;16.92;4.75;;;180.00;2252.80;;;;;;5032225;28;20155;-56
2022/04/15 02:58:09;;;;;;;8.65;3.70;;;180.10;2252.80;;;;;;5032663;28;20032;-56
2022/04/15 03:00:35;;;;;;;8.18;4.28;;;204.80;2252.80;;;;;;5032038;28;20033;-56
2022/04/15 03:03:01;;;;;;;8.63;4.03;;;204.80;2252.80;;;;;;5032308;28;20148;-56
2022/04/15 03:05:27;;;;;;;7.18;4.43;;;180.10;2252.80;;;;;;5032116;28;20039;-57
2022/04/15 03:07:52;;;;;;;9.32;4.28;;;180.00;2252.80;;;;;;5031876;28;20493;-56
2022/04/15 03:10:18;;;;;;;6.95;4.00;;;180.00;2252.80;;;;;;5032128;28;20036;-56
2022/04/15 03:12:44;;;;;;;7.78;3.67;;;180.00;2252.80;;;;;;5031346;28;20545;-56
2022/04/15 03:15:10;;;;;;;5.55;3.90;;;179.90;2252.80;;;;;;5031656;28;20056;-57
2022/04/15 03:17:36;;;;;;;6.72;4.10;;;180.00;2252.80;;;;;;5031794;28;20120;-57
2022/04/15 03:20:05;;;;;;;5.55;3.75;;;180.00;2252.80;;;;;;5032122;28;20022;-56
2022/04/15 03:22:38;;;;;;;5.13;4.10;;;180.00;2252.80;;;;;;5031992;28;20064;-57
2022/04/15 03:25:05;;;;;;;6.60;3.85;;;180.00;2252.80;;;;;;5031606;28;20028;-56
2022/04/15 03:27:31;;;;;;;7.90;4.22;;;179.90;2252.80;;;;;;5031848;28;20476;-56
2022/04/15 03:29:57;;;;;;;11.38;5.35;;;179.80;2252.80;;;;;;5031472;28;20026;-56
2022/04/15 03:32:22;;;;;;;5.55;3.92;;;179.80;2252.80;;;;;;5031456;28;20045;-56
2022/04/15 03:34:51;;;;;;;7.72;4.15;;;179.90;2252.80;;;;;;5031562;28;20060;-56
2022/04/15 03:37:16;;;;;;;8.40;4.43;;;179.80;2252.80;;;;;;5031364;28;20026;-57
2022/04/15 03:39:42;;;;;;;6.35;4.10;;;179.70;2252.80;;;;;;5031408;28;20034;-56
2022/04/15 03:42:08;;;;;;;7.80;4.57;;;179.70;2252.80;;;;;;5031517;28;20025;-56
2022/04/15 03:44:34;;;;;;;9.25;4.28;;;179.70;2252.80;;;;;;5031303;28;20037;-57
2022/04/15 03:47:00;;;;;;;6.68;4.03;;;179.80;2252.80;;;;;;5031409;28;20074;-56
2022/04/15 03:49:25;;;;;;;6.50;3.80;;;179.80;2252.80;;;;;;5030972;28;20059;-57
2022/04/15 03:51:51;;;;;;;7.22;4.07;;;180.00;2252.80;;;;;;5031363;28;20025;-57
2022/04/15 03:54:17;;;;;;;7.38;3.60;;;180.00;2252.80;;;;;;5030909;28;20029;-56
2022/04/15 03:56:42;;;;;;;6.63;3.80;;;180.00;2252.80;;;;;;5031150;28;20248;-57
2022/04/15 03:59:08;;;;;;;8.32;4.07;;;180.00;2252.80;;;;;;5031063;28;20115;-58
2022/04/15 04:01:34;;;;;;;5.50;4.13;;;180.10;2252.80;;;;;;5031040;28;20037;-56
2022/04/15 04:03:59;;;;;;;7.63;5.13;;;180.00;2252.80;;;;;;5031173;28;20033;-57
2022/04/15 04:06:25;;;;;;;17.38;12.73;;;180.00;2252.80;;;;;;5029526;28;20069;-58
2022/04/15 04:08:51;;;;;;;10.80;5.97;;;179.80;2252.80;;;;;;5031233;28;20104;-56
2022/04/15 04:11:17;;;;;;;8.23;4.45;;;179.80;2252.80;;;;;;5030690;28;20033;-57
2022/04/15 04:13:44;;;;;;;8.60;5.95;;;179.90;2252.80;;;;;;5031136;28;20116;-57
2022/04/15 04:16:11;;;;;;;11.60;8.48;;;180.00;2252.80;;;;;;5030984;28;20430;-55
2022/04/15 04:18:38;;;;;;;6.10;4.10;;;180.10;2252.80;;;;;;5030746;28;20060;-56
2022/04/15 04:21:04;;;;;;;13.60;5.22;;;204.90;2252.80;;;;;;5030569;28;20029;-57
2022/04/15 04:23:30;;;;;;;8.68;5.68;;;204.90;2252.80;;;;;;5030858;28;20030;-58
2022/04/15 04:25:55;;;;;;;9.88;6.22;;;205.00;2252.80;;;;;;5029923;28;20033;-57
2022/04/15 04:28:21;;;;;;;8.68;6.10;;;205.10;2252.80;;;;;;5030823;28;20035;-57
2022/04/15 04:30:47;;;;;;;10.63;4.90;;;205.10;2252.80;;;;;;5030640;28;20420;-58
2022/04/15 04:33:13;;;;;;;10.82;4.82;;;205.20;2252.80;;;;;;5030182;28;20083;-58
2022/04/15 04:35:39;;;;;;;6.93;3.60;;;205.30;2252.80;;;;;;5030272;28;20041;-57
2022/04/15 04:38:07;;;;;;;9.82;5.70;;;205.40;2252.80;;;;;;5030378;28;20041;-57
2022/04/15 04:40:34;;;;;;;16.83;4.25;;;205.50;2252.80;;;;;;5030171;28;20017;-57
2022/04/15 04:43:01;;;;;;;10.73;6.10;;;205.60;2252.80;;;;;;5030136;28;20414;-56
2022/04/15 04:45:27;;;;;;;17.55;5.72;;;205.60;2252.80;;;;;;5030194;28;20036;-54
2022/04/15 04:47:54;;;;;;;15.35;6.63;;;230.50;2252.80;;;;;;5030036;28;20033;-56
2022/04/15 04:50:20;;;;;;;16.17;6.75;;;230.60;2252.80;;;;;;5029995;28;20040;-56
2022/04/15 04:52:47;;;;;;;23.80;8.25;;;230.70;2252.80;;;;;;5029893;28;20163;-57
2022/04/15 04:55:13;;;;;;;12.02;4.82;;;230.80;2252.80;;;;;;5030215;28;20430;-57
2022/04/15 04:57:42;;;;;;;9.80;5.05;;;231.00;2201.60;;;;;;5030423;28;20041;-58
2022/04/15 05:00:09;;;;;;;10.07;5.28;;;231.20;2201.60;;;;;;5029972;28;20017;-55
2022/04/15 05:02:35;;;;;;;9.38;4.97;;;231.30;2201.60;;;;;;5029757;28;20037;-56
2022/04/15 05:05:01;;;;;;;8.30;4.80;;;281.70;2124.80;;;;;;5029956;28;20033;-58
2022/04/15 05:07:27;;;;;;;11.80;5.10;;;384.30;1664.00;;;;;;5029545;28;20025;-57
2022/04/15 05:09:53;;;;;;;10.55;5.68;;;460.80;1459.20;;;;;;5029648;28;20026;-57
2022/04/15 05:12:21;;;;;;;11.20;5.63;;;486.80;1331.20;;;;;;5029235;28;20047;-57
2022/04/15 05:14:47;;;;;;;8.80;5.30;;;487.30;1254.40;;;;;;5029744;28;20030;-58
2022/04/15 05:17:13;;;;;;;9.95;5.68;;;512.70;1228.80;;;;;;5030562;28;20033;-58
2022/04/15 05:19:39;;;;;;;10.07;5.05;;;563.30;1203.20;;;;;;5030009;28;20029;-58
2022/04/15 05:22:05;;;;;;;8.05;5.00;;;589.00;1100.80;;;;;;5030080;28;20025;-58
2022/04/15 05:24:30;;;;;;;8.57;5.93;;;589.60;1075.20;;;;;;5030527;28;20376;-58
2022/04/15 05:26:56;;;;;;;9.27;6.68;;;615.00;1049.60;;;;;;5030244;28;20475;-58
2022/04/15 05:29:22;;;;;;;11.75;6.60;;;640.30;998.40;;;;;;5030137;28;20022;-56
2022/04/15 05:31:47;;;;;;;10.05;6.32;;;640.60;998.40;;;;;;5029296;28;20091;-58
2022/04/15 05:34:13;;;;;;;12.40;8.43;;;665.80;972.80;;;;;;5029678;28;20102;-57
2022/04/15 05:36:39;;;;;;;13.55;8.00;;;691.80;921.60;;;;;;5029605;28;20052;-58
2022/04/15 05:39:04;;;;;;;9.23;5.43;;;742.40;896.00;;;;;;5030009;28;20119;-58
2022/04/15 05:41:30;;;;;;;15.70;6.50;;;716.80;896.00;;;;;;5030219;28;20018;-59
2022/04/15 05:43:58;;;;;;;7.63;6.13;;;692.10;896.00;;;;;;5030145;28;20423;-59
2022/04/15 05:46:27;;;;;;;13.38;7.20;;;691.90;921.60;;;;;;5029097;28;20025;-59
2022/04/15 05:48:53;;;;;;;9.30;6.40;;;691.70;896.00;;;;;;5029771;28;20464;-58
2022/04/15 05:51:19;;;;;;;8.32;7.10;;;691.50;896.00;;;;;;5028715;28;20551;-58
2022/04/15 05:53:45;;;;;;;11.20;7.53;;;742.90;844.80;;;;;;5028533;28;20128;-58
2022/04/15 05:56:11;;;;;;;8.57;7.00;;;768.10;844.80;;;;;;5028797;28;20076;-57
2022/04/15 05:58:39;;;;;;;9.50;7.53;;;768.90;819.20;;;;;;5029243;28;20033;-57
2022/04/15 06:01:06;;;;;;;9.80;7.88;;;819.20;819.20;;;;;;5029481;28;20513;-57
2022/04/15 06:03:32;;;;;;;9.60;7.65;;;844.80;793.60;;;;;;5029764;28;20083;-59
2022/04/15 06:06:00;;;;;;;10.23;8.70;;;819.80;793.60;;;;;;5029752;28;20029;-58
2022/04/15 06:08:26;;;;;;;8.02;7.20;;;845.20;768.00;;;;;;5029735;28;20038;-57
2022/04/15 06:10:52;;;;;;;8.75;7.85;;;845.20;768.00;;;;;;5029909;28;20029;-59
2022/04/15 06:13:22;;;;;;;9.98;8.98;;;870.70;742.40;;;;;;5029869;28;20053;-58
2022/04/15 06:15:58;;;;;;;11.88;10.68;;;819.90;768.00;;;;;;5029718;28;20030;-57
2022/04/15 06:18:34;;;;;;;15.48;12.35;;;794.20;819.20;;;;;;5030023;28;20396;-58
2022/04/15 06:21:00;;;;;;;10.77;9.55;;;819.20;819.20;;;;;;5030056;28;20022;-60
2022/04/15 06:23:26;;;;;;;15.93;10.52;;;870.70;768.00;;;;;;5029817;28;20025;-58
2022/04/15 06:25:52;;;;;;;10.55;9.45;;;896.00;742.40;;;;;;5029676;28;20030;-59
2022/04/15 06:28:21;;;;;;;11.88;10.70;;;871.10;742.40;;;;;;5029924;28;20026;-59
2022/04/15 06:30:47;;;;;;;11.05;10.02;;;896.20;742.40;;;;;;5029591;28;20034;-59
2022/04/15 06:33:20;;;;;;;12.30;11.13;;;921.70;742.40;;;;;;5029734;28;20195;-58
2022/04/15 06:35:46;;;;;;;10.93;9.85;;;948.10;691.20;;;;;;5029432;28;20049;-59
2022/04/15 06:38:12;;;;;;;12.52;11.32;;;973.70;691.20;;;;;;5029829;28;20499;-59
2022/04/15 06:40:40;;;;;;;37.08;19.95;;;999.10;665.60;;;;;;5029850;28;20115;-58
2022/04/15 06:43:06;;;;;;;26.90;18.88;;;999.30;665.60;;;;;;5029486;28;20025;-56
2022/04/15 06:45:32;;;;;;;76.25;34.13;;;998.80;665.60;;;;;;5029554;28;20026;-60
2022/04/15 06:47:58;;;;;;;17.45;15.70;;;999.10;665.60;;;;;;5030858;28;20471;-57
2022/04/15 06:50:25;;;;;;;18.27;14.68;;;1024.50;640.00;;;;;;5033315;28;20028;-59
2022/04/15 06:52:51;;;;;;;15.50;12.70;;;1024.90;614.40;;;;;;5033431;28;20033;-59
2022/04/15 06:55:17;;;;;;;14.38;13.13;;;1049.90;665.60;;;;;;5032752;28;20113;-58
2022/04/15 06:57:44;;;;;;;16.67;14.13;;;1075.30;614.40;;;;;;5033554;28;20100;-60
2022/04/15 07:00:14;;;;;;;19.20;17.20;;;1075.40;614.40;;;;;;5033588;28;20386;-60
2022/04/15 07:02:41;;;;;;;47.05;27.27;;;1024.40;665.60;;;;;;5033321;28;20064;-59
2022/04/15 07:05:09;;;;;;;19.40;17.42;;;1024.20;665.60;;;;;;5032945;28;20365;-62
2022/04/15 07:07:35;;;;;;;18.50;16.77;;;999.30;665.60;;;;;;5032724;28;20108;-63
2022/04/15 07:10:02;;;;;;;18.45;16.95;;;998.60;691.20;;;;;;5032927;28;20021;-58
2022/04/15 07:12:28;;;;;;;18.02;16.20;;;1049.60;665.60;;;;;;5032513;28;20443;-61
2022/04/15 07:14:54;;;;;;;18.15;16.58;;;1049.80;640.00;;;;;;5032569;28;20021;-63
2022/04/15 07:17:20;;;;;;;18.15;16.42;;;999.20;665.60;;;;;;5032885;28;20025;-62
2022/04/15 07:19:45;;;;;;;17.55;16.13;;;999.20;691.20;;;;;;5032887;28;20152;-62
2022/04/15 07:22:11;;;;;;;15.95;14.43;;;973.30;691.20;;;;;;5032851;28;20460;-63
2022/04/15 07:24:37;;;;;;;18.70;16.48;;;1024.50;640.00;;;;;;5032476;28;20053;-63
2022/04/15 07:27:03;;;;;;;17.25;15.63;;;1049.80;640.00;;;;;;5032294;28;20146;-62
2022/04/15 07:29:30;;;;;;;15.98;14.57;;;998.90;691.20;;;;;;5032646;28;20036;-62
2022/04/15 07:31:57;;;;;;;16.48;15.02;;;999.00;665.60;;;;;;5032341;28;20056;-59
2022/04/15 07:34:22;;;;;;;22.13;17.42;;;998.90;665.60;;;;;;5032002;28;20057;-62
2022/04/15 07:36:54;;;;;;;19.88;15.68;;;998.80;665.60;;;;;;5032456;28;20022;-61
2022/04/15 07:39:24;;;;;;;25.90;16.60;;;973.70;665.60;;;;;;5032541;28;20032;-58
2022/04/15 07:41:52;;;;;;;80.03;22.90;;;1024.10;640.00;;;;;;5032679;28;20041;-60
2022/04/15 07:44:19;;;;;;;42.00;23.02;;;1100.80;588.80;;;;;;5032515;28;20036;-62
2022/04/15 07:46:45;;;;;;;16.73;15.13;;;1049.60;640.00;;;;;;5032301;28;20033;-60
2022/04/15 07:49:11;;;;;;;21.08;18.88;;;973.70;640.00;;;;;;5032339;28;20026;-61
2022/04/15 07:51:37;;;;;;;22.67;15.82;;;1024.10;640.00;;;;;;5031780;28;20047;-60
2022/04/15 07:54:04;;;;;;;33.03;16.90;;;1024.60;614.40;;;;;;5032097;28;20528;-61
2022/04/15 07:56:32;;;;;;;18.15;14.75;;;998.80;665.60;;;;;;5032273;28;20029;-61
2022/04/15 07:58:58;;;;;;;13.77;12.48;;;1049.80;640.00;;;;;;5031810;28;20037;-61
2022/04/15 08:01:27;;;;;;;21.00;14.85;;;973.60;640.00;;;;;;5031779;28;20423;-60
2022/04/15 08:03:56;;;;;;;39.78;21.02;;;1024.10;640.00;;;;;;5032024;28;20077;-61
2022/04/15 08:06:28;;;;;;;26.98;18.45;;;1050.20;614.40;;;;;;5031702;28;20459;-60
2022/04/15 08:08:55;;;;;;;18.48;16.08;;;1024.70;614.40;;;;;;5031848;28;20097;-62
2022/04/15 08:11:22;;;;;;;22.30;19.88;;;1075.30;588.80;;;;;;5032016;28;20411;-61
2022/04/15 08:13:49;;;;;;;19.38;17.05;;;1050.00;640.00;;;;;;5032111;28;20018;-61
2022/04/15 08:16:15;;;;;;;18.70;16.77;;;1101.20;588.80;;;;;;5031792;28;20026;-60
2022/04/15 08:18:41;;;;;;;19.95;17.63;;;1101.50;588.80;;;;;;5031957;28;20032;-61
2022/04/15 08:21:07;;;;;;;28.98;18.33;;;1101.50;563.20;;;;;;5031450;28;20029;-60
2022/04/15 08:23:32;;;;;;;16.23;14.70;;;1126.40;588.80;;;;;;5031404;28;20033;-60
2022/04/15 08:25:58;;;;;;;15.10;13.55;;;1075.30;563.20;;;;;;5031726;28;20068;-61
2022/04/15 08:28:24;;;;;;;19.35;15.50;;;1075.20;588.80;;;;;;5031580;28;20377;-62
2022/04/15 08:30:50;;;;;;;17.45;14.02;;;1024.30;588.80;;;;;;5030211;28;20063;-60
2022/04/15 08:33:16;;;;;;;16.17;13.00;;;999.20;614.40;;;;;;5031203;28;20029;-62
2022/04/15 08:35:41;;;;;;;14.13;12.88;;;998.90;588.80;;;;;;5031260;28;20381;-61
2022/04/15 08:38:07;;;;;;;14.23;12.73;;;1024.00;588.80;;;;;;5031451;28;20387;-61
2022/04/15 08:40:37;;;;;;;13.95;12.65;;;998.60;614.40;;;;;;5031326;28;20030;-61
2022/04/15 08:43:06;;;;;;;12.30;10.88;;;921.90;640.00;;;;;;5031088;28;20518;-61
2022/04/15 08:45:33;;;;;;;14.35;10.60;;;870.90;640.00;;;;;;5031399;28;20033;-61
2022/04/15 08:48:01;;;;;;;12.45;8.52;;;844.80;691.20;;;;;;5031149;28;20084;-62
2022/04/15 08:50:29;;;;;;;26.77;13.63;;;820.00;716.80;;;;;;5030787;28;20017;-61
2022/04/15 08:52:59;;;;;;;32.85;12.93;;;794.20;742.40;;;;;;5031013;28;20087;-59
2022/04/15 08:55:27;;;;;;;13.63;10.15;;;794.00;768.00;;;;;;5030751;28;20100;-59
2022/04/15 08:57:54;;;;;;;16.35;10.57;;;793.60;768.00;;;;;;5030983;28;20039;-61
2022/04/15 09:00:21;;;;;;;14.90;10.68;;;768.60;768.00;;;;;;5031185;28;20101;-61
2022/04/15 09:02:49;;;;;;;12.68;10.70;;;768.30;793.60;;;;;;5030628;28;20048;-61
2022/04/15 09:05:19;;;;;;;18.00;10.38;;;743.10;793.60;;;;;;5030699;28;20026;-59
2022/04/15 09:07:45;;;;;;;13.35;10.25;;;742.90;819.20;;;;;;5030793;28;20071;-59
2022/04/15 09:10:12;;;;;;;12.77;9.30;;;742.60;819.20;;;;;;5031216;28;20104;-61
2022/04/15 09:12:41;;;;;;;19.60;10.07;;;742.90;844.80;;;;;;5030857;28;20029;-60
2022/04/15 09:15:06;;;;;;;11.02;7.82;;;742.50;819.20;;;;;;5030634;28;20033;-58
2022/04/15 09:17:40;;;;;;;10.13;7.68;;;717.10;793.60;;;;;;5030654;28;20021;-57
2022/04/15 09:20:09;;;;;;;15.38;7.28;;;717.50;793.60;;;;;;5030508;28;20022;-61
2022/04/15 09:22:35;;;;;;;11.07;6.57;;;692.10;768.00;;;;;;5030365;28;20033;-61
2022/04/15 09:25:02;;;;;;;11.82;8.35;;;717.20;793.60;;;;;;5030563;28;20026;-60
2022/04/15 09:27:28;;;;;;;11.32;8.85;;;716.90;793.60;;;;;;5030479;28;20053;-60
2022/04/15 09:29:55;;;;;;;12.02;7.03;;;717.10;844.80;;;;;;5030263;28;20079;-60
2022/04/15 09:32:22;;;;;;;17.02;8.50;;;716.90;870.40;;;;;;5030370;28;20036;-61
2022/04/15 09:34:58;;;;;;;14.77;9.25;;;717.00;819.20;;;;;;5030178;28;20108;-61
2022/04/15 09:37:30;;;;;;;11.38;9.05;;;716.80;844.80;;;;;;5030244;28;20427;-60
2022/04/15 09:40:26;;;;;;;9.23;6.28;;;691.70;819.20;;;;;;5030083;28;20048;-61
2022/04/15 09:42:54;;;;;;;9.82;6.38;;;692.10;768.00;;;;;;5029246;28;20133;-59
2022/04/15 09:45:38;;;;;;;6.25;5.57;;;692.10;768.00;;;;;;5030190;28;20108;-58
2022/04/15 09:48:04;;;;;;;7.20;5.75;;;691.90;742.40;;;;;;5030151;28;20030;-57
2022/04/15 09:50:31;;;;;;;8.52;5.53;;;691.90;742.40;;;;;;5030157;28;20032;-60
2022/04/15 09:53:17;;;;;;;7.05;5.10;;;691.90;742.40;;;;;;5029912;28;20032;-59
2022/04/15 09:55:46;;;;;;;6.90;4.65;;;691.90;742.40;;;;;;5029965;28;20108;-60
2022/04/15 09:58:20;;;;;;;8.13;5.38;;;692.10;742.40;;;;;;5030129;28;20021;-60
2022/04/15 10:00:48;;;;;;;15.05;6.03;;;691.90;742.40;;;;;;5029925;28;20048;-59
2022/04/15 10:03:28;;;;;;;8.63;5.45;;;691.90;742.40;;;;;;5029931;28;20067;-61
2022/04/15 10:05:58;;;;;;;7.53;5.53;;;691.80;768.00;;;;;;5029923;28;20108;-60
2022/04/15 10:08:25;;;;;;;7.40;4.60;;;691.70;742.40;;;;;;5029675;28;20017;-60
2022/04/15 10:10:52;;;;;;;6.15;4.20;;;691.70;742.40;;;;;;5030156;28;20030;-63
2022/04/15 10:13:20;;;;;;;8.02;4.88;;;691.70;742.40;;;;;;5030224;28;20021;-60
2022/04/15 10:15:47;;;;;;;7.50;4.60;;;691.70;742.40;;;;;;5029895;28;20114;-58
2022/04/15 10:18:14;;;;;;;7.72;4.68;;;691.70;742.40;;;;;;5029803;28;20026;-59
2022/04/15 10:20:42;;;;;;;7.30;5.00;;;691.60;768.00;;;;;;5029727;28;20033;-58
2022/04/15 10:23:11;;;;;;;12.98;7.28;;;691.60;793.60;;;;;;5031197;28;20037;-61
2022/04/15 10:25:39;;;;;;;9.25;6.55;;;691.40;896.00;;;;;;5033695;28;20025;-60
2022/04/15 10:28:09;;;;;;;6.88;5.95;;;691.50;972.80;;;;;;5033466;28;20030;-58
2022/04/15 10:30:35;;;;;;;8.15;5.55;;;691.30;972.80;;;;;;5033463;28;20029;-58
2022/04/15 10:33:02;;;;;;;8.63;5.10;;;691.40;870.40;;;;;;5033696;28;20021;-60
2022/04/15 10:35:30;;;;;;;7.97;6.05;;;666.50;844.80;;;;;;5033506;28;20496;-61
2022/04/15 10:38:10;;;;;;;8.05;6.63;;;666.20;947.20;;;;;;5033488;28;20375;-60
2022/04/15 10:40:36;;;;;;;7.65;5.22;;;665.90;972.80;;;;;;5033348;28;20033;-57
2022/04/15 10:43:20;;;;;;;22.33;6.70;;;666.10;921.60;;;;;;5033443;28;20128;-60
2022/04/15 10:45:46;;;;;;;11.05;6.53;;;666.50;972.80;;;;;;5033347;28;20032;-58
2022/04/15 10:48:12;;;;;;;7.13;6.13;;;666.50;947.20;;;;;;5033400;28;20030;-57
2022/04/15 10:50:40;;;;;;;9.52;6.57;;;666.30;972.80;;;;;;5033324;28;20529;-60
2022/04/15 10:53:27;;;;;;;8.70;6.60;;;691.20;947.20;;;;;;5033341;28;20049;-58
2022/04/15 10:55:53;;;;;;;9.40;6.65;;;666.30;947.20;;;;;;5033050;28;20036;-57
2022/04/15 10:58:21;;;;;;;9.52;6.95;;;691.20;998.40;;;;;;5033239;28;20026;-58
2022/04/15 11:01:18;;;;;;;8.18;6.22;;;666.50;972.80;;;;;;5032975;28;20152;-57
2022/04/15 11:03:53;;;;;;;9.93;6.40;;;691.20;972.80;;;;;;5033208;28;20434;-57
2022/04/15 11:06:26;;;;;;;8.20;6.82;;;691.30;972.80;;;;;;5033210;28;20026;-58
2022/04/15 11:08:52;;;;;;;;;;;691.40;998.40;;;;;;5033514;28;20033;-57
2022/04/15 11:11:18;;;;;;;11.88;7.55;;;691.20;947.20;;;;;;5032839;28;19905;-58
2022/04/15 11:13:44;;;;;;;11.23;7.03;;;691.30;972.80;;;;;;5032835;28;20506;-60
2022/04/15 11:16:14;;;;;;;9.40;6.32;;;666.30;947.20;;;;;;5033056;28;20033;-60
2022/04/15 11:18:52;;;;;;;9.65;6.93;;;666.50;947.20;;;;;;5032835;28;20027;-60
2022/04/15 11:21:27;;;;;;;9.05;6.18;;;666.50;921.60;;;;;;5032888;28;20032;-61
2022/04/15 11:24:01;;;;;;;10.68;6.85;;;666.50;921.60;;;;;;5032703;28;20037;-59
2022/04/15 11:26:28;;;;;;;8.60;7.15;;;666.50;947.20;;;;;;5032461;28;20099;-60
2022/04/15 11:28:59;;;;;;;9.20;6.50;;;666.50;947.20;;;;;;5032546;28;20021;-60
2022/04/15 11:31:27;;;;;;;9.52;6.53;;;691.20;972.80;;;;;;5032398;28;20021;-61
2022/04/15 11:34:09;;;;;;;9.45;7.00;;;665.90;947.20;;;;;;5031582;28;20088;-60
2022/04/15 11:36:42;;;;;;;8.52;6.68;;;666.10;947.20;;;;;;5032144;28;20036;-60
2022/04/15 11:39:13;;;;;;;8.50;5.85;;;665.70;972.80;;;;;;5032528;28;20017;-58
2022/04/15 11:41:46;;;;;;;10.85;6.45;;;666.10;998.40;;;;;;5032555;28;20018;-57
2022/04/15 11:44:12;;;;;;;;;;;666.10;972.80;;;;;;5032986;28;20116;-60
2022/04/15 11:46:43;;;;;;;9.38;6.57;;;665.90;998.40;;;;;;5032437;28;19909;-60
2022/04/15 11:49:25;;;;;;;11.13;6.60;;;665.70;972.80;;;;;;5032121;28;20025;-58
2022/04/15 11:51:58;;;;;;;11.20;6.88;;;666.10;947.20;;;;;;5032162;28;20447;-59
2022/04/15 11:54:30;;;;;;;7.57;6.57;;;666.20;998.40;;;;;;5032131;28;20451;-61
2022/04/15 11:56:58;;;;;;;13.32;7.97;;;666.30;972.80;;;;;;5031841;28;20491;-61
2022/04/15 11:59:24;;;;;;;10.05;6.93;;;666.30;947.20;;;;;;5031877;28;20029;-61
2022/04/15 12:01:52;;;;;;;8.45;6.60;;;691.20;972.80;;;;;;5031927;28;20554;-60
2022/04/15 12:04:18;;;;;;;12.20;6.80;;;666.50;947.20;;;;;;5031776;28;20037;-60
2022/04/15 12:06:44;;;;;;;11.23;6.05;;;666.50;947.20;;;;;;5032140;28;20586;-61
2022/04/15 12:09:11;;;;;;;12.20;6.15;;;666.50;1024.00;;;;;;5032149;28;20063;-60
2022/04/15 12:11:38;;;;;;;10.82;6.95;;;691.30;1100.80;;;;;;5031894;28;20036;-60
2022/04/15 12:14:06;;;;;;;10.93;7.05;;;691.30;1049.60;;;;;;5031798;28;20041;-57
2022/04/15 12:16:34;;;;;;;7.32;6.45;;;691.20;947.20;;;;;;5032071;28;20033;-59
2022/04/15 12:19:01;;;;;;;11.43;8.52;;;666.30;921.60;;;;;;5032098;28;20024;-59